sensor_id;sensor_type;location;lat;lon;timestamp;P1;durP1;ratioP1;P2;durP2;ratioP2
38567;SDS011;24338;48.280;10.970;2023-02-08T00:01:44;17.15;;;8.95;;
38567;SDS011;24338;48.280;10.970;2023-02-08T00:04:11;17.50;;;9.15;;
38567;SDS011;24338;48.280;10.970;2023-02-08T00:06:37;17.38;;;9.10;;
38567;SDS011;24338;48.280;10.970;2023-02-08T00:09:04;20.00;;;10.40;;
38567;SDS011;24338;48.280;10.970;2023-02-08T00:11:32;16.58;;;8.65;;
38567;SDS011;24338;48.280;10.970;2023-02-08T00:13:59;16.55;;;8.10;;
38567;SDS011;24338;48.280;10.970;2023-02-08T00:16:26;19.02;;;9.10;;
38567;SDS011;24338;48.280;10.970;2023-02-08T00:18:52;17.98;;;8.88;;
38567;SDS011;24338;48.280;10.970;2023-02-08T00:21:19;19.40;;;9.82;;
38567;SDS011;24338;48.280;10.970;2023-02-08T00:23:46;14.98;;;8.93;;
38567;SDS011;24338;48.280;10.970;2023-02-08T00:26:14;18.58;;;9.10;;
38567;SDS011;24338;48.280;10.970;2023-02-08T00:28:41;16.00;;;9.00;;
38567;SDS011;24338;48.280;10.970;2023-02-08T00:31:08;17.42;;;8.48;;
38567;SDS011;24338;48.280;10.970;2023-02-08T00:33:34;16.58;;;8.27;;
38567;SDS011;24338;48.280;10.970;2023-02-08T00:36:03;20.77;;;8.27;;
38567;SDS011;24338;48.280;10.970;2023-02-08T00:38:31;16.45;;;8.25;;
38567;SDS011;24338;48.280;10.970;2023-02-08T00:40:58;18.80;;;9.93;;
38567;SDS011;24338;48.280;10.970;2023-02-08T00:43:25;16.60;;;8.85;;
38567;SDS011;24338;48.280;10.970;2023-02-08T00:45:52;20.23;;;10.10;;
38567;SDS011;24338;48.280;10.970;2023-02-08T00:48:20;20.75;;;10.35;;
38567;SDS011;24338;48.280;10.970;2023-02-08T00:51:01;18.23;;;9.45;;
38567;SDS011;24338;48.280;10.970;2023-02-08T00:53:29;18.35;;;10.15;;
38567;SDS011;24338;48.280;10.970;2023-02-08T00:55:59;16.15;;;9.00;;
38567;SDS011;24338;48.280;10.970;2023-02-08T00:58:26;21.25;;;11.27;;
38567;SDS011;24338;48.280;10.970;2023-02-08T01:00:53;22.13;;;9.32;;
38567;SDS011;24338;48.280;10.970;2023-02-08T01:03:21;18.40;;;9.90;;
38567;SDS011;24338;48.280;10.970;2023-02-08T01:05:49;20.23;;;9.80;;
38567;SDS011;24338;48.280;10.970;2023-02-08T01:08:16;18.15;;;10.07;;
38567;SDS011;24338;48.280;10.970;2023-02-08T01:10:45;15.85;;;8.60;;
38567;SDS011;24338;48.280;10.970;2023-02-08T01:13:12;20.70;;;10.77;;
38567;SDS011;24338;48.280;10.970;2023-02-08T01:15:39;16.17;;;8.55;;
38567;SDS011;24338;48.280;10.970;2023-02-08T01:18:06;17.45;;;9.95;;
38567;SDS011;24338;48.280;10.970;2023-02-08T01:20:33;17.25;;;8.77;;
38567;SDS011;24338;48.280;10.970;2023-02-08T01:23:02;22.10;;;10.40;;
38567;SDS011;24338;48.280;10.970;2023-02-08T01:25:29;21.77;;;10.05;;
38567;SDS011;24338;48.280;10.970;2023-02-08T01:27:56;19.92;;;10.43;;
38567;SDS011;24338;48.280;10.970;2023-02-08T01:30:24;23.55;;;11.18;;
38567;SDS011;24338;48.280;10.970;2023-02-08T01:32:51;17.42;;;9.88;;
38567;SDS011;24338;48.280;10.970;2023-02-08T01:35:18;22.13;;;10.63;;
38567;SDS011;24338;48.280;10.970;2023-02-08T01:37:45;18.50;;;10.40;;
38567;SDS011;24338;48.280;10.970;2023-02-08T01:40:11;18.85;;;9.63;;
38567;SDS011;24338;48.280;10.970;2023-02-08T01:42:38;22.95;;;11.45;;
38567;SDS011;24338;48.280;10.970;2023-02-08T01:47:41;21.80;;;11.23;;
38567;SDS011;24338;48.280;10.970;2023-02-08T01:50:10;18.50;;;9.63;;
38567;SDS011;24338;48.280;10.970;2023-02-08T01:52:38;22.65;;;11.80;;
38567;SDS011;24338;48.280;10.970;2023-02-08T01:55:07;20.02;;;10.43;;
38567;SDS011;24338;48.280;10.970;2023-02-08T01:57:37;23.40;;;11.10;;
38567;SDS011;24338;48.280;10.970;2023-02-08T02:00:07;20.95;;;10.93;;
38567;SDS011;24338;48.280;10.970;2023-02-08T02:02:49;23.35;;;10.68;;
38567;SDS011;24338;48.280;10.970;2023-02-08T02:05:20;18.85;;;10.60;;
38567;SDS011;24338;48.280;10.970;2023-02-08T02:07:48;24.48;;;11.40;;
38567;SDS011;24338;48.280;10.970;2023-02-08T02:10:18;23.88;;;11.98;;
38567;SDS011;24338;48.280;10.970;2023-02-08T02:12:50;25.55;;;12.90;;
38567;SDS011;24338;48.280;10.970;2023-02-08T02:15:18;22.67;;;10.80;;
38567;SDS011;24338;48.280;10.970;2023-02-08T02:17:45;23.20;;;11.35;;
38567;SDS011;24338;48.280;10.970;2023-02-08T02:39:27;27.42;;;13.35;;
38567;SDS011;24338;48.280;10.970;2023-02-08T02:45:21;25.95;;;12.20;;
38567;SDS011;24338;48.280;10.970;2023-02-08T02:48:05;27.85;;;12.95;;
38567;SDS011;24338;48.280;10.970;2023-02-08T02:50:45;31.23;;;13.48;;
38567;SDS011;24338;48.280;10.970;2023-02-08T02:56:17;26.20;;;12.30;;
38567;SDS011;24338;48.280;10.970;2023-02-08T02:58:51;25.98;;;13.07;;
38567;SDS011;24338;48.280;10.970;2023-02-08T03:01:22;22.05;;;12.48;;
38567;SDS011;24338;48.280;10.970;2023-02-08T03:03:51;28.73;;;13.95;;
38567;SDS011;24338;48.280;10.970;2023-02-08T03:12:29;24.33;;;12.88;;
38567;SDS011;24338;48.280;10.970;2023-02-08T03:18:33;23.15;;;12.77;;
38567;SDS011;24338;48.280;10.970;2023-02-08T03:27:04;25.80;;;12.27;;
38567;SDS011;24338;48.280;10.970;2023-02-08T03:29:40;24.40;;;12.35;;
38567;SDS011;24338;48.280;10.970;2023-02-08T03:35:36;27.65;;;12.82;;
38567;SDS011;24338;48.280;10.970;2023-02-08T03:38:44;25.88;;;12.75;;
38567;SDS011;24338;48.280;10.970;2023-02-08T03:41:13;26.45;;;13.80;;
38567;SDS011;24338;48.280;10.970;2023-02-08T03:43:49;26.95;;;14.13;;
38567;SDS011;24338;48.280;10.970;2023-02-08T03:48:46;28.92;;;13.52;;
38567;SDS011;24338;48.280;10.970;2023-02-08T03:51:20;26.63;;;13.35;;
38567;SDS011;24338;48.280;10.970;2023-02-08T03:53:49;25.38;;;15.02;;
38567;SDS011;24338;48.280;10.970;2023-02-08T03:56:19;25.95;;;13.45;;
38567;SDS011;24338;48.280;10.970;2023-02-08T03:59:02;24.73;;;13.30;;
38567;SDS011;24338;48.280;10.970;2023-02-08T04:01:40;27.13;;;13.32;;
38567;SDS011;24338;48.280;10.970;2023-02-08T04:04:10;24.92;;;13.80;;
38567;SDS011;24338;48.280;10.970;2023-02-08T04:06:39;25.98;;;12.98;;
38567;SDS011;24338;48.280;10.970;2023-02-08T04:09:06;27.17;;;12.93;;
38567;SDS011;24338;48.280;10.970;2023-02-08T04:11:32;27.40;;;14.13;;
38567;SDS011;24338;48.280;10.970;2023-02-08T04:13:59;25.75;;;13.40;;
38567;SDS011;24338;48.280;10.970;2023-02-08T04:16:26;27.27;;;13.88;;
38567;SDS011;24338;48.280;10.970;2023-02-08T04:18:53;29.23;;;14.30;;
38567;SDS011;24338;48.280;10.970;2023-02-08T04:21:20;27.08;;;13.57;;
38567;SDS011;24338;48.280;10.970;2023-02-08T04:23:46;25.35;;;15.07;;
38567;SDS011;24338;48.280;10.970;2023-02-08T04:26:13;25.38;;;13.98;;
38567;SDS011;24338;48.280;10.970;2023-02-08T04:28:40;27.38;;;13.50;;
38567;SDS011;24338;48.280;10.970;2023-02-08T04:31:07;27.13;;;15.15;;
38567;SDS011;24338;48.280;10.970;2023-02-08T04:33:34;25.15;;;13.63;;
38567;SDS011;24338;48.280;10.970;2023-02-08T04:36:00;31.42;;;14.80;;
38567;SDS011;24338;48.280;10.970;2023-02-08T04:38:27;25.30;;;13.60;;
38567;SDS011;24338;48.280;10.970;2023-02-08T04:40:54;28.48;;;13.35;;
38567;SDS011;24338;48.280;10.970;2023-02-08T04:43:21;28.15;;;14.95;;
38567;SDS011;24338;48.280;10.970;2023-02-08T04:45:48;34.90;;;13.40;;
38567;SDS011;24338;48.280;10.970;2023-02-08T04:48:16;31.13;;;15.00;;
38567;SDS011;24338;48.280;10.970;2023-02-08T04:50:44;24.27;;;14.32;;
38567;SDS011;24338;48.280;10.970;2023-02-08T04:53:11;26.85;;;13.88;;
38567;SDS011;24338;48.280;10.970;2023-02-08T04:55:38;28.95;;;14.52;;
38567;SDS011;24338;48.280;10.970;2023-02-08T04:58:05;27.65;;;14.32;;
38567;SDS011;24338;48.280;10.970;2023-02-08T05:00:32;28.45;;;15.10;;
38567;SDS011;24338;48.280;10.970;2023-02-08T05:02:59;24.42;;;13.25;;
38567;SDS011;24338;48.280;10.970;2023-02-08T05:05:26;31.05;;;14.60;;
38567;SDS011;24338;48.280;10.970;2023-02-08T05:07:53;25.25;;;12.45;;
38567;SDS011;24338;48.280;10.970;2023-02-08T05:10:20;27.38;;;16.02;;
38567;SDS011;24338;48.280;10.970;2023-02-08T05:12:47;27.13;;;14.43;;
38567;SDS011;24338;48.280;10.970;2023-02-08T05:15:14;28.90;;;15.32;;
38567;SDS011;24338;48.280;10.970;2023-02-08T05:17:41;27.73;;;13.73;;
38567;SDS011;24338;48.280;10.970;2023-02-08T05:20:08;31.88;;;15.38;;
38567;SDS011;24338;48.280;10.970;2023-02-08T05:22:36;31.10;;;15.00;;
38567;SDS011;24338;48.280;10.970;2023-02-08T05:25:03;28.88;;;13.85;;
38567;SDS011;24338;48.280;10.970;2023-02-08T05:27:30;31.63;;;15.15;;
38567;SDS011;24338;48.280;10.970;2023-02-08T05:29:57;28.17;;;15.00;;
38567;SDS011;24338;48.280;10.970;2023-02-08T05:32:24;26.65;;;15.10;;
38567;SDS011;24338;48.280;10.970;2023-02-08T05:34:51;31.60;;;15.23;;
38567;SDS011;24338;48.280;10.970;2023-02-08T05:37:18;27.95;;;14.77;;
38567;SDS011;24338;48.280;10.970;2023-02-08T05:39:45;29.05;;;15.18;;
38567;SDS011;24338;48.280;10.970;2023-02-08T05:42:11;26.85;;;13.85;;
38567;SDS011;24338;48.280;10.970;2023-02-08T05:44:38;25.38;;;13.45;;
38567;SDS011;24338;48.280;10.970;2023-02-08T05:47:05;28.13;;;14.50;;
38567;SDS011;24338;48.280;10.970;2023-02-08T05:49:32;27.20;;;13.55;;
38567;SDS011;24338;48.280;10.970;2023-02-08T05:51:59;26.58;;;15.20;;
38567;SDS011;24338;48.280;10.970;2023-02-08T05:54:25;28.50;;;14.48;;
38567;SDS011;24338;48.280;10.970;2023-02-08T05:56:52;29.98;;;15.07;;
38567;SDS011;24338;48.280;10.970;2023-02-08T05:59:19;26.88;;;14.02;;
38567;SDS011;24338;48.280;10.970;2023-02-08T06:01:46;27.08;;;13.45;;
38567;SDS011;24338;48.280;10.970;2023-02-08T06:04:12;29.38;;;14.98;;
38567;SDS011;24338;48.280;10.970;2023-02-08T06:06:39;29.63;;;14.85;;
38567;SDS011;24338;48.280;10.970;2023-02-08T06:09:06;26.92;;;13.68;;
38567;SDS011;24338;48.280;10.970;2023-02-08T06:11:33;29.50;;;14.20;;
38567;SDS011;24338;48.280;10.970;2023-02-08T06:14:01;30.52;;;14.50;;
38567;SDS011;24338;48.280;10.970;2023-02-08T06:16:28;30.60;;;15.35;;
38567;SDS011;24338;48.280;10.970;2023-02-08T06:18:55;30.42;;;14.30;;
38567;SDS011;24338;48.280;10.970;2023-02-08T06:21:22;30.40;;;15.55;;
38567;SDS011;24338;48.280;10.970;2023-02-08T06:23:49;27.58;;;14.73;;
38567;SDS011;24338;48.280;10.970;2023-02-08T06:26:16;32.80;;;15.45;;
38567;SDS011;24338;48.280;10.970;2023-02-08T06:28:43;27.60;;;15.68;;
38567;SDS011;24338;48.280;10.970;2023-02-08T06:31:10;27.60;;;15.40;;
38567;SDS011;24338;48.280;10.970;2023-02-08T06:33:37;29.02;;;15.32;;
38567;SDS011;24338;48.280;10.970;2023-02-08T06:36:03;28.60;;;15.65;;
38567;SDS011;24338;48.280;10.970;2023-02-08T06:38:30;32.35;;;16.33;;
38567;SDS011;24338;48.280;10.970;2023-02-08T06:40:57;28.55;;;14.40;;
38567;SDS011;24338;48.280;10.970;2023-02-08T06:43:24;25.88;;;14.50;;
38567;SDS011;24338;48.280;10.970;2023-02-08T06:45:51;34.72;;;16.63;;
38567;SDS011;24338;48.280;10.970;2023-02-08T06:48:17;28.90;;;15.18;;
38567;SDS011;24338;48.280;10.970;2023-02-08T06:50:44;32.05;;;16.33;;
38567;SDS011;24338;48.280;10.970;2023-02-08T06:53:11;26.67;;;14.98;;
38567;SDS011;24338;48.280;10.970;2023-02-08T06:55:38;31.77;;;16.25;;
38567;SDS011;24338;48.280;10.970;2023-02-08T06:58:05;31.63;;;16.08;;
38567;SDS011;24338;48.280;10.970;2023-02-08T07:00:32;32.45;;;18.10;;
38567;SDS011;24338;48.280;10.970;2023-02-08T07:02:58;30.27;;;16.52;;
38567;SDS011;24338;48.280;10.970;2023-02-08T07:05:26;29.63;;;15.68;;
38567;SDS011;24338;48.280;10.970;2023-02-08T07:07:52;33.03;;;15.65;;
38567;SDS011;24338;48.280;10.970;2023-02-08T07:10:19;32.25;;;16.30;;
38567;SDS011;24338;48.280;10.970;2023-02-08T07:12:46;32.38;;;16.85;;
38567;SDS011;24338;48.280;10.970;2023-02-08T07:15:13;28.80;;;16.10;;
38567;SDS011;24338;48.280;10.970;2023-02-08T07:17:40;29.83;;;16.77;;
38567;SDS011;24338;48.280;10.970;2023-02-08T07:20:07;33.30;;;16.15;;
38567;SDS011;24338;48.280;10.970;2023-02-08T07:22:36;35.78;;;17.38;;
38567;SDS011;24338;48.280;10.970;2023-02-08T07:25:04;30.17;;;15.70;;
38567;SDS011;24338;48.280;10.970;2023-02-08T07:27:32;31.15;;;16.85;;
38567;SDS011;24338;48.280;10.970;2023-02-08T07:29:59;30.35;;;15.60;;
38567;SDS011;24338;48.280;10.970;2023-02-08T07:32:26;26.30;;;15.13;;
38567;SDS011;24338;48.280;10.970;2023-02-08T07:34:53;33.55;;;16.65;;
38567;SDS011;24338;48.280;10.970;2023-02-08T07:37:20;34.95;;;17.73;;
38567;SDS011;24338;48.280;10.970;2023-02-08T07:39:47;30.65;;;17.13;;
38567;SDS011;24338;48.280;10.970;2023-02-08T07:42:14;30.42;;;16.33;;
38567;SDS011;24338;48.280;10.970;2023-02-08T07:44:41;26.38;;;16.02;;
38567;SDS011;24338;48.280;10.970;2023-02-08T07:47:07;31.88;;;16.08;;
38567;SDS011;24338;48.280;10.970;2023-02-08T07:49:34;30.52;;;17.88;;
38567;SDS011;24338;48.280;10.970;2023-02-08T07:52:01;33.20;;;17.58;;
38567;SDS011;24338;48.280;10.970;2023-02-08T07:54:28;35.35;;;16.70;;
38567;SDS011;24338;48.280;10.970;2023-02-08T07:56:55;29.63;;;15.57;;
38567;SDS011;24338;48.280;10.970;2023-02-08T07:59:22;32.80;;;15.60;;
38567;SDS011;24338;48.280;10.970;2023-02-08T08:01:49;32.58;;;17.88;;
38567;SDS011;24338;48.280;10.970;2023-02-08T08:04:16;29.67;;;15.77;;
38567;SDS011;24338;48.280;10.970;2023-02-08T08:06:44;30.10;;;16.17;;
38567;SDS011;24338;48.280;10.970;2023-02-08T08:09:12;32.50;;;16.38;;
38567;SDS011;24338;48.280;10.970;2023-02-08T08:11:40;24.88;;;14.60;;
38567;SDS011;24338;48.280;10.970;2023-02-08T08:14:07;33.20;;;15.85;;
38567;SDS011;24338;48.280;10.970;2023-02-08T08:16:34;33.00;;;17.48;;
38567;SDS011;24338;48.280;10.970;2023-02-08T08:19:01;28.48;;;17.13;;
38567;SDS011;24338;48.280;10.970;2023-02-08T08:21:27;30.33;;;17.67;;
38567;SDS011;24338;48.280;10.970;2023-02-08T08:23:54;28.83;;;16.05;;
38567;SDS011;24338;48.280;10.970;2023-02-08T08:26:21;30.90;;;15.07;;
38567;SDS011;24338;48.280;10.970;2023-02-08T08:28:48;31.60;;;15.50;;
38567;SDS011;24338;48.280;10.970;2023-02-08T08:31:16;32.63;;;17.10;;
38567;SDS011;24338;48.280;10.970;2023-02-08T08:33:45;32.55;;;16.02;;
38567;SDS011;24338;48.280;10.970;2023-02-08T08:36:13;29.83;;;16.20;;
38567;SDS011;24338;48.280;10.970;2023-02-08T08:38:40;30.50;;;16.60;;
38567;SDS011;24338;48.280;10.970;2023-02-08T08:41:08;30.23;;;15.80;;
38567;SDS011;24338;48.280;10.970;2023-02-08T08:43:40;30.65;;;14.88;;
38567;SDS011;24338;48.280;10.970;2023-02-08T08:46:07;27.80;;;14.70;;
38567;SDS011;24338;48.280;10.970;2023-02-08T08:48:34;34.47;;;17.27;;
38567;SDS011;24338;48.280;10.970;2023-02-08T08:51:03;28.30;;;15.95;;
38567;SDS011;24338;48.280;10.970;2023-02-08T08:53:30;31.98;;;18.45;;
38567;SDS011;24338;48.280;10.970;2023-02-08T08:55:57;32.70;;;17.65;;
38567;SDS011;24338;48.280;10.970;2023-02-08T08:58:23;28.48;;;16.00;;
38567;SDS011;24338;48.280;10.970;2023-02-08T09:00:50;27.88;;;14.95;;
38567;SDS011;24338;48.280;10.970;2023-02-08T09:03:17;27.55;;;15.07;;
38567;SDS011;24338;48.280;10.970;2023-02-08T09:05:45;25.55;;;14.32;;
38567;SDS011;24338;48.280;10.970;2023-02-08T09:08:12;28.00;;;15.75;;
38567;SDS011;24338;48.280;10.970;2023-02-08T09:10:39;30.00;;;15.82;;
38567;SDS011;24338;48.280;10.970;2023-02-08T09:13:06;31.88;;;15.80;;
38567;SDS011;24338;48.280;10.970;2023-02-08T09:15:37;28.45;;;14.90;;
38567;SDS011;24338;48.280;10.970;2023-02-08T09:18:04;30.08;;;14.40;;
38567;SDS011;24338;48.280;10.970;2023-02-08T09:20:32;27.23;;;15.13;;
38567;SDS011;24338;48.280;10.970;2023-02-08T09:22:58;31.13;;;15.45;;
38567;SDS011;24338;48.280;10.970;2023-02-08T09:25:25;24.85;;;14.55;;
38567;SDS011;24338;48.280;10.970;2023-02-08T09:27:52;25.27;;;13.52;;
38567;SDS011;24338;48.280;10.970;2023-02-08T09:30:19;26.10;;;14.05;;
38567;SDS011;24338;48.280;10.970;2023-02-08T09:32:46;26.35;;;14.35;;
38567;SDS011;24338;48.280;10.970;2023-02-08T09:35:13;22.48;;;13.02;;
38567;SDS011;24338;48.280;10.970;2023-02-08T09:37:40;23.90;;;13.27;;
38567;SDS011;24338;48.280;10.970;2023-02-08T09:40:12;23.05;;;14.25;;
38567;SDS011;24338;48.280;10.970;2023-02-08T09:42:50;26.60;;;13.55;;
38567;SDS011;24338;48.280;10.970;2023-02-08T09:45:43;25.33;;;13.93;;
38567;SDS011;24338;48.280;10.970;2023-02-08T09:48:30;25.73;;;14.13;;
38567;SDS011;24338;48.280;10.970;2023-02-08T09:51:04;29.15;;;15.40;;
38567;SDS011;24338;48.280;10.970;2023-02-08T09:53:43;25.60;;;14.77;;
38567;SDS011;24338;48.280;10.970;2023-02-08T09:56:15;29.27;;;14.68;;
38567;SDS011;24338;48.280;10.970;2023-02-08T09:58:49;23.35;;;12.75;;
38567;SDS011;24338;48.280;10.970;2023-02-08T10:01:20;30.83;;;15.35;;
38567;SDS011;24338;48.280;10.970;2023-02-08T10:03:58;24.77;;;14.65;;
38567;SDS011;24338;48.280;10.970;2023-02-08T10:06:31;23.10;;;13.10;;
38567;SDS011;24338;48.280;10.970;2023-02-08T10:08:59;26.08;;;13.38;;
38567;SDS011;24338;48.280;10.970;2023-02-08T10:14:17;27.50;;;13.90;;
38567;SDS011;24338;48.280;10.970;2023-02-08T10:17:22;27.52;;;14.60;;
38567;SDS011;24338;48.280;10.970;2023-02-08T10:31:37;23.63;;;12.05;;
38567;SDS011;24338;48.280;10.970;2023-02-08T10:36:55;24.90;;;13.50;;
38567;SDS011;24338;48.280;10.970;2023-02-08T10:39:31;26.50;;;14.65;;
38567;SDS011;24338;48.280;10.970;2023-02-08T10:42:01;23.08;;;14.48;;
38567;SDS011;24338;48.280;10.970;2023-02-08T10:44:33;27.60;;;15.77;;
38567;SDS011;24338;48.280;10.970;2023-02-08T10:47:17;22.83;;;12.90;;
38567;SDS011;24338;48.280;10.970;2023-02-08T10:50:00;26.15;;;15.10;;
38567;SDS011;24338;48.280;10.970;2023-02-08T10:52:32;29.13;;;15.13;;
38567;SDS011;24338;48.280;10.970;2023-02-08T10:54:59;23.67;;;12.90;;
38567;SDS011;24338;48.280;10.970;2023-02-08T10:57:27;29.95;;;15.00;;
38567;SDS011;24338;48.280;10.970;2023-02-08T11:02:29;22.33;;;13.32;;
38567;SDS011;24338;48.280;10.970;2023-02-08T11:07:31;26.83;;;14.80;;
38567;SDS011;24338;48.280;10.970;2023-02-08T11:11:03;25.65;;;12.60;;
38567;SDS011;24338;48.280;10.970;2023-02-08T11:13:34;24.63;;;14.02;;
38567;SDS011;24338;48.280;10.970;2023-02-08T11:16:04;24.95;;;13.48;;
38567;SDS011;24338;48.280;10.970;2023-02-08T11:18:33;24.73;;;14.80;;
38567;SDS011;24338;48.280;10.970;2023-02-08T11:21:07;24.88;;;13.60;;
38567;SDS011;24338;48.280;10.970;2023-02-08T11:23:47;22.60;;;13.38;;
38567;SDS011;24338;48.280;10.970;2023-02-08T11:26:20;25.08;;;14.00;;
38567;SDS011;24338;48.280;10.970;2023-02-08T11:29:15;25.40;;;13.95;;
38567;SDS011;24338;48.280;10.970;2023-02-08T11:34:24;27.17;;;13.77;;
38567;SDS011;24338;48.280;10.970;2023-02-08T11:36:52;23.08;;;13.20;;
38567;SDS011;24338;48.280;10.970;2023-02-08T11:39:39;25.10;;;12.60;;
38567;SDS011;24338;48.280;10.970;2023-02-08T11:42:27;26.63;;;12.75;;
38567;SDS011;24338;48.280;10.970;2023-02-08T11:44:59;24.17;;;13.10;;
38567;SDS011;24338;48.280;10.970;2023-02-08T11:47:27;21.55;;;13.60;;
38567;SDS011;24338;48.280;10.970;2023-02-08T11:49:58;23.08;;;13.38;;
38567;SDS011;24338;48.280;10.970;2023-02-08T11:52:29;24.27;;;13.18;;
38567;SDS011;24338;48.280;10.970;2023-02-08T12:00:46;24.70;;;14.48;;
38567;SDS011;24338;48.280;10.970;2023-02-08T12:03:26;23.20;;;12.80;;
38567;SDS011;24338;48.280;10.970;2023-02-08T12:11:38;26.48;;;13.75;;
38567;SDS011;24338;48.280;10.970;2023-02-08T12:14:14;27.02;;;13.60;;
38567;SDS011;24338;48.280;10.970;2023-02-08T12:26:08;23.83;;;12.73;;
38567;SDS011;24338;48.280;10.970;2023-02-08T12:43:42;24.42;;;13.48;;
38567;SDS011;24338;48.280;10.970;2023-02-08T12:46:20;20.83;;;12.13;;
38567;SDS011;24338;48.280;10.970;2023-02-08T12:57:20;20.50;;;12.32;;
38567;SDS011;24338;48.280;10.970;2023-02-08T13:00:06;24.70;;;14.20;;
38567;SDS011;24338;48.280;10.970;2023-02-08T13:02:59;20.05;;;12.15;;
38567;SDS011;24338;48.280;10.970;2023-02-08T13:06:05;21.98;;;13.07;;
38567;SDS011;24338;48.280;10.970;2023-02-08T13:08:40;21.48;;;12.48;;
38567;SDS011;24338;48.280;10.970;2023-02-08T13:11:33;21.27;;;12.48;;
38567;SDS011;24338;48.280;10.970;2023-02-08T13:14:09;23.65;;;14.10;;
38567;SDS011;24338;48.280;10.970;2023-02-08T13:16:45;21.88;;;12.13;;
38567;SDS011;24338;48.280;10.970;2023-02-08T13:19:35;23.65;;;12.77;;
38567;SDS011;24338;48.280;10.970;2023-02-08T13:22:25;23.30;;;13.90;;
38567;SDS011;24338;48.280;10.970;2023-02-08T13:24:55;21.63;;;12.98;;
38567;SDS011;24338;48.280;10.970;2023-02-08T13:27:33;20.95;;;12.82;;
38567;SDS011;24338;48.280;10.970;2023-02-08T13:30:00;23.15;;;14.18;;
38567;SDS011;24338;48.280;10.970;2023-02-08T13:32:34;25.88;;;13.90;;
38567;SDS011;24338;48.280;10.970;2023-02-08T13:35:13;24.07;;;14.03;;
38567;SDS011;24338;48.280;10.970;2023-02-08T13:37:48;23.08;;;12.90;;
38567;SDS011;24338;48.280;10.970;2023-02-08T13:40:18;23.40;;;13.43;;
38567;SDS011;24338;48.280;10.970;2023-02-08T13:45:27;22.52;;;13.05;;
38567;SDS011;24338;48.280;10.970;2023-02-08T13:48:07;20.73;;;12.45;;
38567;SDS011;24338;48.280;10.970;2023-02-08T13:53:12;27.23;;;13.75;;
38567;SDS011;24338;48.280;10.970;2023-02-08T13:55:51;22.45;;;13.13;;
38567;SDS011;24338;48.280;10.970;2023-02-08T13:58:24;21.48;;;12.50;;
38567;SDS011;24338;48.280;10.970;2023-02-08T14:03:22;21.30;;;13.38;;
38567;SDS011;24338;48.280;10.970;2023-02-08T14:08:56;21.70;;;12.68;;
38567;SDS011;24338;48.280;10.970;2023-02-08T14:11:48;23.08;;;11.63;;
38567;SDS011;24338;48.280;10.970;2023-02-08T14:19:31;22.95;;;11.15;;
38567;SDS011;24338;48.280;10.970;2023-02-08T14:22:14;20.75;;;10.93;;
38567;SDS011;24338;48.280;10.970;2023-02-08T14:24:44;22.10;;;10.77;;
38567;SDS011;24338;48.280;10.970;2023-02-08T14:27:37;22.55;;;11.10;;
38567;SDS011;24338;48.280;10.970;2023-02-08T14:30:07;19.87;;;11.20;;
38567;SDS011;24338;48.280;10.970;2023-02-08T14:32:49;19.90;;;12.35;;
38567;SDS011;24338;48.280;10.970;2023-02-08T14:35:23;23.90;;;13.38;;
38567;SDS011;24338;48.280;10.970;2023-02-08T14:45:46;22.02;;;12.35;;
38567;SDS011;24338;48.280;10.970;2023-02-08T14:51:13;24.02;;;12.57;;
38567;SDS011;24338;48.280;10.970;2023-02-08T14:53:55;20.73;;;12.05;;
38567;SDS011;24338;48.280;10.970;2023-02-08T14:56:43;20.63;;;12.20;;
38567;SDS011;24338;48.280;10.970;2023-02-08T14:59:19;14.80;;;8.43;;
38567;SDS011;24338;48.280;10.970;2023-02-08T15:01:55;21.20;;;11.93;;
38567;SDS011;24338;48.280;10.970;2023-02-08T15:04:44;22.92;;;13.20;;
38567;SDS011;24338;48.280;10.970;2023-02-08T15:10:04;25.02;;;12.80;;
38567;SDS011;24338;48.280;10.970;2023-02-08T15:12:36;20.58;;;12.70;;
38567;SDS011;24338;48.280;10.970;2023-02-08T15:15:05;21.27;;;12.30;;
38567;SDS011;24338;48.280;10.970;2023-02-08T15:17:45;21.65;;;12.50;;
38567;SDS011;24338;48.280;10.970;2023-02-08T15:20:22;21.90;;;12.52;;
38567;SDS011;24338;48.280;10.970;2023-02-08T15:25:35;24.23;;;12.77;;
38567;SDS011;24338;48.280;10.970;2023-02-08T15:28:13;21.00;;;12.50;;
38567;SDS011;24338;48.280;10.970;2023-02-08T15:30:44;21.67;;;12.63;;
38567;SDS011;24338;48.280;10.970;2023-02-08T15:33:19;26.35;;;12.48;;
38567;SDS011;24338;48.280;10.970;2023-02-08T15:36:04;22.70;;;12.38;;
38567;SDS011;24338;48.280;10.970;2023-02-08T15:38:34;21.75;;;13.20;;
38567;SDS011;24338;48.280;10.970;2023-02-08T15:41:05;21.13;;;12.57;;
38567;SDS011;24338;48.280;10.970;2023-02-08T15:43:38;21.02;;;12.15;;
38567;SDS011;24338;48.280;10.970;2023-02-08T15:46:22;20.30;;;11.48;;
38567;SDS011;24338;48.280;10.970;2023-02-08T15:48:51;21.25;;;12.70;;
38567;SDS011;24338;48.280;10.970;2023-02-08T15:51:19;20.73;;;11.70;;
38567;SDS011;24338;48.280;10.970;2023-02-08T15:53:50;18.05;;;11.65;;
38567;SDS011;24338;48.280;10.970;2023-02-08T15:56:27;21.70;;;12.70;;
38567;SDS011;24338;48.280;10.970;2023-02-08T15:59:06;23.73;;;13.35;;
38567;SDS011;24338;48.280;10.970;2023-02-08T16:01:40;20.27;;;11.30;;
38567;SDS011;24338;48.280;10.970;2023-02-08T16:04:11;19.60;;;11.70;;
38567;SDS011;24338;48.280;10.970;2023-02-08T16:06:45;21.13;;;12.57;;
38567;SDS011;24338;48.280;10.970;2023-02-08T16:09:25;21.45;;;13.55;;
38567;SDS011;24338;48.280;10.970;2023-02-08T16:11:55;18.58;;;11.77;;
38567;SDS011;24338;48.280;10.970;2023-02-08T16:14:25;18.73;;;10.90;;
38567;SDS011;24338;48.280;10.970;2023-02-08T16:16:56;23.20;;;10.77;;
38567;SDS011;24338;48.280;10.970;2023-02-08T16:19:30;21.85;;;11.05;;
38567;SDS011;24338;48.280;10.970;2023-02-08T16:24:37;21.30;;;11.93;;
38567;SDS011;24338;48.280;10.970;2023-02-08T16:27:05;21.83;;;12.93;;
38567;SDS011;24338;48.280;10.970;2023-02-08T16:29:41;22.60;;;12.63;;
38567;SDS011;24338;48.280;10.970;2023-02-08T16:32:31;21.05;;;12.13;;
38567;SDS011;24338;48.280;10.970;2023-02-08T16:35:11;20.02;;;11.90;;
38567;SDS011;24338;48.280;10.970;2023-02-08T16:37:56;20.55;;;11.80;;
38567;SDS011;24338;48.280;10.970;2023-02-08T16:43:18;21.10;;;11.63;;
38567;SDS011;24338;48.280;10.970;2023-02-08T16:46:14;22.13;;;12.18;;
38567;SDS011;24338;48.280;10.970;2023-02-08T16:48:42;20.50;;;11.25;;
38567;SDS011;24338;48.280;10.970;2023-02-08T16:51:10;24.65;;;13.55;;
38567;SDS011;24338;48.280;10.970;2023-02-08T16:56:09;22.70;;;11.63;;
38567;SDS011;24338;48.280;10.970;2023-02-08T16:58:36;22.55;;;12.15;;
38567;SDS011;24338;48.280;10.970;2023-02-08T17:01:03;25.08;;;13.57;;
38567;SDS011;24338;48.280;10.970;2023-02-08T17:03:30;26.73;;;15.13;;
38567;SDS011;24338;48.280;10.970;2023-02-08T17:05:58;29.98;;;17.10;;
38567;SDS011;24338;48.280;10.970;2023-02-08T17:08:26;26.73;;;13.77;;
38567;SDS011;24338;48.280;10.970;2023-02-08T17:10:53;22.63;;;12.20;;
38567;SDS011;24338;48.280;10.970;2023-02-08T17:13:24;22.83;;;11.38;;